createdAt,value
2018-06-17T00:04:17.320Z,8.37
2018-06-17T00:09:20.371Z,9.43
2018-06-17T00:14:23.490Z,8.57
2018-06-17T00:19:26.528Z,9.20
2018-06-17T00:24:29.618Z,8.87
2018-06-17T00:29:32.721Z,8.70
2018-06-17T00:34:35.845Z,8.63
2018-06-17T00:39:39.015Z,7.93
2018-06-17T00:44:42.031Z,8.97
2018-06-17T00:49:45.070Z,9.23
2018-06-17T00:54:48.114Z,10.30
2018-06-17T00:59:51.165Z,9.00
2018-06-17T01:04:54.370Z,9.53
2018-06-17T01:09:57.947Z,9.67
2018-06-17T01:15:01.014Z,10.30
2018-06-17T01:20:04.833Z,10.70
2018-06-17T01:25:16.852Z,11.00
2018-06-17T01:30:19.984Z,10.70
2018-06-17T01:35:23.050Z,10.07
2018-06-17T01:40:26.187Z,10.20
2018-06-17T01:45:29.273Z,10.03
2018-06-17T01:50:32.313Z,9.50
2018-06-17T01:55:35.465Z,9.73
2018-06-17T02:00:38.607Z,9.03
2018-06-17T02:05:47.358Z,10.03
2018-06-17T02:10:56.086Z,9.80
2018-06-17T02:15:59.249Z,10.03
2018-06-17T02:21:02.409Z,9.17
2018-06-17T02:26:05.433Z,9.23
2018-06-17T02:31:08.578Z,10.00
2018-06-17T02:36:11.662Z,9.20
2018-06-17T02:41:14.734Z,9.57
2018-06-17T02:46:23.402Z,10.73
2018-06-17T02:51:32.011Z,11.33
2018-06-17T02:56:35.104Z,11.57
2018-06-17T03:01:38.150Z,11.80
2018-06-17T03:06:41.574Z,11.73
2018-06-17T03:11:44.898Z,12.83
2018-06-17T03:16:47.955Z,13.17
2018-06-17T03:21:51.305Z,12.93
2018-06-17T03:27:00.150Z,14.50
2018-06-17T03:32:08.933Z,15.07
2018-06-17T03:37:11.981Z,14.20
2018-06-17T03:42:15.052Z,14.93
2018-06-17T03:47:18.140Z,14.37
2018-06-17T03:52:21.143Z,13.80
2018-06-17T03:57:24.197Z,16.40
2018-06-17T04:02:27.376Z,14.57
2018-06-17T04:07:30.565Z,15.30
2018-06-17T04:12:33.771Z,15.90
2018-06-17T04:17:36.825Z,16.90
2018-06-17T04:22:39.902Z,16.83
2018-06-17T04:27:42.977Z,18.20
2018-06-17T04:32:46.116Z,16.60
2018-06-17T04:37:49.182Z,17.23
2018-06-17T04:42:52.250Z,15.70
2018-06-17T04:47:55.291Z,15.50
2018-06-17T04:52:58.383Z,13.73
2018-06-17T04:58:06.718Z,14.33
2018-06-17T05:03:09.918Z,14.20
2018-06-17T05:08:13.135Z,14.67
2018-06-17T05:13:16.735Z,12.87
2018-06-17T05:18:19.769Z,13.43
2018-06-17T05:23:22.794Z,13.83
2018-06-17T05:28:25.871Z,12.50
2018-06-17T05:33:28.909Z,11.40
2018-06-17T05:38:32.074Z,11.30
2018-06-17T05:43:35.199Z,11.83
2018-06-17T05:48:38.218Z,11.10
2018-06-17T05:53:41.287Z,11.13
2018-06-17T05:58:44.274Z,9.07
2018-06-17T06:03:47.295Z,8.47
2018-06-17T06:08:50.321Z,6.70
2018-06-17T06:13:53.370Z,7.13
2018-06-17T06:18:56.401Z,6.60
2018-06-17T06:23:59.426Z,5.37
2018-06-17T06:29:02.653Z,5.47
2018-06-17T06:34:05.674Z,5.80
2018-06-17T06:39:10.017Z,3.93
2018-06-17T06:44:13.038Z,5.37
2018-06-17T06:49:16.050Z,4.37
2018-06-17T06:54:19.043Z,4.10
2018-06-17T06:59:22.057Z,3.80
2018-06-17T07:04:42.361Z,3.50
2018-06-17T07:10:02.903Z,3.43
2018-06-17T07:15:06.207Z,3.70
2018-06-17T07:20:09.351Z,3.60
2018-06-17T07:25:22.453Z,3.53
2018-06-17T07:30:25.462Z,2.87
2018-06-17T07:35:28.787Z,3.27
2018-06-17T07:40:49.223Z,3.40
2018-06-17T07:45:52.363Z,2.77
2018-06-17T07:51:12.337Z,3.57
2018-06-17T07:56:15.469Z,2.40
2018-06-17T08:01:18.511Z,2.60
2018-06-17T08:06:21.570Z,2.73
2018-06-17T08:11:24.590Z,2.70
2018-06-17T08:16:27.662Z,2.47
2018-06-17T08:21:30.869Z,1.97
2018-06-17T08:26:34.106Z,1.90
2018-06-17T08:31:37.241Z,1.87
2018-06-17T08:36:40.873Z,1.80
2018-06-17T08:41:43.913Z,2.60
2018-06-17T08:46:47.803Z,1.90
2018-06-17T08:51:50.865Z,2.10
2018-06-17T08:56:53.896Z,1.73
2018-06-17T09:01:57.063Z,2.07
2018-06-17T09:07:00.098Z,2.63
2018-06-17T09:12:03.146Z,1.83
2018-06-17T09:17:06.193Z,1.87
2018-06-17T09:22:09.226Z,1.93
2018-06-17T09:27:12.246Z,1.80
2018-06-17T09:32:15.402Z,1.97
2018-06-17T09:37:18.409Z,1.73
2018-06-17T09:42:21.434Z,1.30
2018-06-17T09:47:24.479Z,1.73
2018-06-17T09:52:27.495Z,1.67
2018-06-17T09:57:30.506Z,1.30
2018-06-17T10:02:33.594Z,1.37
2018-06-17T10:07:36.617Z,1.53
2018-06-17T10:12:39.647Z,2.00
2018-06-17T10:17:42.702Z,1.67
2018-06-17T10:22:45.838Z,1.53
2018-06-17T10:27:49.044Z,1.50
2018-06-17T10:32:53.855Z,1.20
2018-06-17T10:37:57.288Z,1.90
2018-06-17T10:43:00.285Z,1.20
2018-06-17T10:48:03.742Z,1.50
2018-06-17T10:53:07.071Z,1.70
2018-06-17T10:58:10.179Z,1.33
2018-06-17T11:03:13.224Z,1.80
2018-06-17T11:08:16.394Z,2.10
2018-06-17T11:13:19.520Z,1.70
2018-06-17T11:18:22.534Z,1.90
2018-06-17T11:23:25.770Z,1.73
2018-06-17T11:28:28.765Z,1.53
2018-06-17T11:33:31.832Z,1.87
2018-06-17T11:38:34.889Z,1.57
2018-06-17T11:43:37.889Z,1.60
2018-06-17T11:48:40.945Z,1.50
2018-06-17T11:53:43.990Z,1.93
2018-06-17T11:58:47.121Z,1.73
2018-06-17T12:03:50.173Z,1.70
2018-06-17T12:08:53.329Z,2.20
2018-06-17T12:13:56.371Z,1.73
2018-06-17T12:18:59.558Z,1.90
2018-06-17T12:24:02.610Z,1.70
2018-06-17T12:29:05.746Z,2.00
2018-06-17T12:34:08.808Z,1.33
2018-06-17T12:39:12.927Z,2.50
2018-06-17T12:44:15.949Z,1.77
2018-06-17T12:49:19.167Z,1.90
2018-06-17T12:54:22.212Z,2.20
2018-06-17T12:59:25.271Z,2.20
2018-06-17T13:04:28.403Z,1.70
2018-06-17T13:09:31.424Z,2.33
2018-06-17T13:14:34.515Z,1.70
2018-06-17T13:19:37.538Z,2.03
2018-06-17T13:24:40.575Z,1.70
2018-06-17T13:29:43.685Z,1.90
2018-06-17T13:34:46.769Z,1.50
2018-06-17T13:39:49.803Z,1.97
2018-06-17T13:44:52.834Z,2.10
2018-06-17T13:49:55.883Z,2.20
2018-06-17T13:54:58.886Z,2.53
2018-06-17T14:00:01.942Z,1.93
2018-06-17T14:05:05.254Z,2.17
2018-06-17T14:10:08.261Z,2.00
2018-06-17T14:15:11.270Z,1.60
2018-06-17T14:20:14.337Z,2.07
2018-06-17T14:25:17.393Z,2.20
2018-06-17T14:30:20.461Z,1.60
2018-06-17T14:35:23.475Z,1.80
2018-06-17T14:40:26.511Z,2.40
2018-06-17T14:46:38.750Z,2.47
2018-06-17T14:51:48.839Z,2.00
2018-06-17T14:56:51.861Z,2.00
2018-06-17T15:01:54.998Z,1.57
2018-06-17T15:06:58.071Z,1.70
2018-06-17T15:12:01.884Z,2.00
2018-06-17T15:17:05.141Z,2.10
2018-06-17T15:22:08.186Z,2.10
2018-06-17T15:27:11.262Z,1.87
2018-06-17T15:32:19.891Z,1.77
2018-06-17T15:37:28.677Z,4.23
2018-06-17T15:42:31.734Z,4.80
2018-06-17T15:47:34.805Z,2.27
2018-06-17T15:52:37.849Z,26.40
2018-06-17T15:57:40.849Z,66.70
2018-06-17T16:02:43.894Z,48.90
2018-06-17T16:07:47.032Z,5.10
2018-06-17T16:12:55.631Z,6.67
2018-06-17T16:19:05.003Z,14.37
2018-06-17T16:24:08.033Z,11.00
2018-06-17T16:29:11.197Z,5.17
2018-06-17T16:34:14.203Z,5.30
2018-06-17T16:39:17.181Z,6.10
2018-06-17T16:44:20.211Z,4.40
2018-06-17T16:49:23.350Z,4.63
2018-06-17T16:54:33.117Z,3.17
2018-06-17T17:00:41.357Z,3.80
2018-06-17T17:05:44.419Z,4.20
2018-06-17T17:10:47.414Z,4.23
2018-06-17T17:15:50.407Z,3.70
2018-06-17T17:20:53.418Z,3.07
2018-06-17T17:25:56.780Z,3.90
2018-06-17T17:31:00.139Z,2.90
2018-06-17T17:36:08.877Z,3.17
2018-06-17T17:41:11.910Z,2.50
2018-06-17T17:46:20.554Z,2.90
2018-06-17T17:51:23.599Z,2.53
2018-06-17T17:56:26.823Z,2.90
2018-06-17T18:01:29.833Z,2.97
2018-06-17T18:06:32.834Z,2.57
2018-06-17T18:11:35.867Z,2.57
2018-06-17T18:16:38.969Z,3.47
2018-06-17T18:21:42.260Z,2.90
2018-06-17T18:26:51.733Z,3.00
2018-06-17T18:32:00.427Z,3.23
2018-06-17T18:37:03.501Z,3.10
2018-06-17T18:42:06.590Z,2.83
2018-06-17T18:47:09.865Z,2.73
2018-06-17T18:52:13.120Z,3.03
2018-06-17T18:57:16.230Z,3.20
2018-06-17T19:02:19.558Z,3.40
2018-06-17T19:07:23.359Z,3.30
2018-06-17T19:12:32.427Z,3.50
2018-06-17T19:17:41.137Z,3.20
2018-06-17T19:22:44.115Z,3.73
2018-06-17T19:27:47.125Z,3.90
2018-06-17T19:32:50.241Z,3.73
2018-06-17T19:37:53.372Z,3.47
2018-06-17T19:42:56.381Z,4.30
2018-06-17T19:47:59.598Z,4.33
2018-06-17T19:53:08.316Z,3.83
2018-06-17T19:58:17.037Z,4.47
2018-06-17T20:03:20.103Z,4.47
2018-06-17T20:08:23.331Z,4.27
2018-06-17T20:13:26.506Z,4.30
2018-06-17T20:18:29.570Z,5.47
2018-06-17T20:23:32.702Z,4.30
2018-06-17T20:28:36.089Z,4.17
2018-06-17T20:33:44.934Z,4.10
2018-06-17T20:38:53.825Z,4.73
2018-06-17T20:43:57.058Z,4.83
2018-06-17T20:49:00.775Z,4.90
2018-06-17T20:54:03.921Z,5.20
2018-06-17T20:59:07.120Z,5.00
2018-06-17T21:04:10.268Z,5.00
2018-06-17T21:09:13.273Z,5.20
2018-06-17T21:14:16.325Z,6.07
2018-06-17T21:19:24.883Z,5.23
2018-06-17T21:24:33.585Z,5.30
2018-06-17T21:29:36.619Z,4.70
2018-06-17T21:34:39.657Z,4.40
2018-06-17T21:39:42.772Z,5.40
2018-06-17T21:44:45.870Z,4.07
2018-06-17T21:49:48.931Z,4.33
2018-06-17T21:54:52.159Z,3.97
2018-06-17T21:59:55.585Z,4.30
2018-06-17T22:04:58.578Z,4.40
2018-06-17T22:10:07.316Z,4.17
2018-06-17T22:15:16.162Z,3.80
2018-06-17T22:20:19.442Z,3.80
2018-06-17T22:25:25.794Z,4.10
2018-06-17T22:30:28.863Z,4.90
2018-06-17T22:35:32.034Z,4.40
2018-06-17T22:40:35.094Z,3.87
2018-06-17T22:45:38.134Z,4.30
2018-06-17T22:50:41.243Z,4.30
2018-06-17T22:55:44.306Z,3.60
2018-06-17T23:00:52.908Z,3.90
2018-06-17T23:06:01.458Z,4.77
2018-06-17T23:11:04.545Z,4.23
2018-06-17T23:16:07.594Z,4.37
2018-06-17T23:21:10.617Z,4.63
2018-06-17T23:26:13.991Z,5.27
2018-06-17T23:31:17.083Z,3.70
2018-06-17T23:36:20.166Z,4.43
2018-06-17T23:41:23.281Z,4.07
2018-06-17T23:46:31.871Z,4.33
2018-06-17T23:51:40.485Z,4.17
2018-06-17T23:56:43.716Z,4.83
